AAL1015 YSSY-KLAX
Flight info
| Callsign | AAL1015 |
|---|---|
| Flight time | N/A |
| Altitude | 31000 |
| Route | TESAT B450 NOBAR A579 PUPEX/N0499F330 A579 NN B581 WACOS/N0488F350 B581 BALKS/N0477F370 B581 FICKY GOATZ2 |
| Aircraft | B77W/H-SDE1E2E3FGHIJ2J3J4J5M1RWXY/LB1D1 |
Departure
| Time | N/A |
|---|---|
| Airport | Sydney Kingsford Smith International Airport (YSSY) |
Arrival
| Time | 2026-04-20 16:08 |
|---|---|
| Airport | Los Angeles International Airport (KLAX) |
| Time | Latitude | Longitude | Altitude | Speed | Heading |
|---|---|---|---|---|---|
| 2026-04-20 15:39 | 32.24627 | -119.88382 | 33071 ft | 513 kts | 47° |
| 2026-04-20 15:40 | 32.29477 | -119.82212 | 33062 ft | 512 kts | 47° |
| 2026-04-20 15:40 | 32.34308 | -119.76057 | 33062 ft | 511 kts | 47° |
| 2026-04-20 15:41 | 32.39143 | -119.69885 | 33064 ft | 511 kts | 47° |
| 2026-04-20 15:41 | 32.43886 | -119.63821 | 33063 ft | 511 kts | 47° |
| 2026-04-20 15:42 | 32.47517 | -119.59172 | 33054 ft | 510 kts | 47° |
| 2026-04-20 15:42 | 32.52402 | -119.52908 | 33049 ft | 509 kts | 47° |
| 2026-04-20 15:43 | 32.57189 | -119.46758 | 33056 ft | 509 kts | 47° |
| 2026-04-20 15:43 | 32.59554 | -119.43716 | 32735 ft | 501 kts | 47° |
| 2026-04-20 15:43 | 32.61919 | -119.40672 | 31716 ft | 507 kts | 47° |
| 2026-04-20 15:43 | 32.64341 | -119.37551 | 30550 ft | 514 kts | 47° |
| 2026-04-20 15:44 | 32.66726 | -119.34476 | 29961 ft | 509 kts | 48° |
| 2026-04-20 15:44 | 32.69120 | -119.31387 | 29485 ft | 501 kts | 48° |
| 2026-04-20 15:44 | 32.71466 | -119.28357 | 28916 ft | 496 kts | 48° |
| 2026-04-20 15:44 | 32.73787 | -119.25356 | 28315 ft | 492 kts | 47° |
| 2026-04-20 15:45 | 32.76067 | -119.22405 | 27718 ft | 489 kts | 47° |
| 2026-04-20 15:45 | 32.78352 | -119.19447 | 27100 ft | 485 kts | 47° |
| 2026-04-20 15:45 | 32.80628 | -119.16497 | 26484 ft | 481 kts | 47° |
| 2026-04-20 15:45 | 32.82795 | -119.13686 | 25878 ft | 478 kts | 47° |
| 2026-04-20 15:46 | 32.85046 | -119.10765 | 25243 ft | 474 kts | 47° |
| 2026-04-20 15:46 | 32.87257 | -119.07893 | 24617 ft | 470 kts | 47° |
| 2026-04-20 15:46 | 32.89451 | -119.05041 | 23994 ft | 467 kts | 47° |
| 2026-04-20 15:46 | 32.91634 | -119.02200 | 23371 ft | 464 kts | 47° |
| 2026-04-20 15:47 | 32.93800 | -118.99380 | 22737 ft | 461 kts | 47° |
| 2026-04-20 15:47 | 32.95937 | -118.96595 | 22097 ft | 459 kts | 47° |
| 2026-04-20 15:47 | 32.98079 | -118.93801 | 21457 ft | 456 kts | 47° |
| 2026-04-20 15:47 | 33.00232 | -118.90991 | 20805 ft | 453 kts | 47° |
| 2026-04-20 15:48 | 33.02330 | -118.88251 | 20157 ft | 451 kts | 47° |
| 2026-04-20 15:48 | 33.04429 | -118.85509 | 19526 ft | 448 kts | 47° |
| 2026-04-20 15:48 | 33.06518 | -118.82775 | 18875 ft | 446 kts | 47° |
| 2026-04-20 15:48 | 33.08599 | -118.80051 | 18224 ft | 443 kts | 47° |
| 2026-04-20 15:49 | 33.10670 | -118.77338 | 17580 ft | 440 kts | 48° |
| 2026-04-20 15:49 | 33.12730 | -118.74636 | 16940 ft | 438 kts | 48° |
| 2026-04-20 15:49 | 33.14767 | -118.71963 | 16288 ft | 436 kts | 48° |
| 2026-04-20 15:49 | 33.16788 | -118.69311 | 16050 ft | 421 kts | 48° |
| 2026-04-20 15:50 | 33.18690 | -118.66813 | 16048 ft | 401 kts | 48° |
| 2026-04-20 15:50 | 33.20500 | -118.64320 | 15975 ft | 386 kts | 50° |
| 2026-04-20 15:50 | 33.22195 | -118.61926 | 15838 ft | 378 kts | 50° |
| 2026-04-20 15:50 | 33.23878 | -118.59550 | 15737 ft | 375 kts | 50° |
| 2026-04-20 15:51 | 33.25574 | -118.57158 | 15648 ft | 374 kts | 50° |
| 2026-04-20 15:51 | 33.27263 | -118.54776 | 15551 ft | 375 kts | 50° |
| 2026-04-20 15:51 | 33.28950 | -118.52399 | 15444 ft | 374 kts | 50° |
| 2026-04-20 15:51 | 33.30629 | -118.50032 | 15349 ft | 372 kts | 51° |
| 2026-04-20 15:52 | 33.32133 | -118.47510 | 15243 ft | 371 kts | 62° |
| 2026-04-20 15:52 | 33.33171 | -118.44707 | 15141 ft | 367 kts | 74° |
| 2026-04-20 15:52 | 33.33669 | -118.41763 | 15050 ft | 364 kts | 88° |
| 2026-04-20 15:53 | 33.33619 | -118.35741 | 14869 ft | 360 kts | 95° |
| 2026-04-20 15:53 | 33.33506 | -118.32787 | 14775 ft | 358 kts | 96° |
| 2026-04-20 15:53 | 33.33376 | -118.29808 | 14680 ft | 357 kts | 96° |
| 2026-04-20 15:53 | 33.33228 | -118.26811 | 14578 ft | 356 kts | 96° |
| 2026-04-20 15:54 | 33.33074 | -118.23876 | 14465 ft | 356 kts | 96° |
| 2026-04-20 15:54 | 33.32928 | -118.21191 | 14373 ft | 354 kts | 96° |
| 2026-04-20 15:54 | 33.32763 | -118.18224 | 14269 ft | 354 kts | 96° |
| 2026-04-20 15:54 | 33.32599 | -118.15316 | 14192 ft | 354 kts | 96° |
| 2026-04-20 15:55 | 33.32676 | -118.12366 | 14074 ft | 357 kts | 82° |
| 2026-04-20 15:55 | 33.33435 | -118.09518 | 13977 ft | 361 kts | 66° |
| 2026-04-20 15:55 | 33.34806 | -118.06985 | 13546 ft | 366 kts | 52° |
| 2026-04-20 15:55 | 33.36499 | -118.04717 | 13025 ft | 366 kts | 48° |
| 2026-04-20 15:56 | 33.38338 | -118.02615 | 12555 ft | 364 kts | 38° |
| 2026-04-20 15:56 | 33.40492 | -118.01083 | 12102 ft | 362 kts | 24° |
| 2026-04-20 15:56 | 33.42901 | -118.00204 | 11688 ft | 358 kts | 9° |
| 2026-04-20 15:56 | 33.45365 | -118.00008 | 11314 ft | 352 kts | 359° |
| 2026-04-20 15:57 | 33.47783 | -118.00069 | 10939 ft | 347 kts | 358° |
| 2026-04-20 15:57 | 33.50213 | -118.00157 | 10554 ft | 343 kts | 358° |
| 2026-04-20 15:57 | 33.52591 | -118.00256 | 10203 ft | 339 kts | 357° |
| 2026-04-20 15:57 | 33.54905 | -118.00360 | 10049 ft | 328 kts | 357° |
| 2026-04-20 15:58 | 33.57147 | -118.00464 | 10036 ft | 312 kts | 357° |
| 2026-04-20 15:58 | 33.59268 | -118.00562 | 10030 ft | 299 kts | 358° |
| 2026-04-20 15:58 | 33.61332 | -118.00654 | 10039 ft | 292 kts | 358° |
| 2026-04-20 15:58 | 33.63333 | -118.00742 | 9771 ft | 289 kts | 357° |
| 2026-04-20 15:59 | 33.65333 | -118.01025 | 9384 ft | 289 kts | 346° |
| 2026-04-20 15:59 | 33.67283 | -118.01650 | 9110 ft | 286 kts | 343° |
| 2026-04-20 15:59 | 33.69202 | -118.02319 | 8810 ft | 284 kts | 343° |
| 2026-04-20 15:59 | 33.71086 | -118.02974 | 8515 ft | 282 kts | 343° |
| 2026-04-20 16:00 | 33.72984 | -118.03631 | 8167 ft | 280 kts | 343° |
| 2026-04-20 16:00 | 33.74827 | -118.04266 | 7745 ft | 278 kts | 343° |
| 2026-04-20 16:00 | 33.76690 | -118.04909 | 7370 ft | 274 kts | 343° |
| 2026-04-20 16:00 | 33.78501 | -118.05575 | 6991 ft | 272 kts | 339° |
| 2026-04-20 16:01 | 33.80188 | -118.06356 | 6873 ft | 260 kts | 337° |
| 2026-04-20 16:01 | 33.81835 | -118.07149 | 6850 ft | 244 kts | 337° |
| 2026-04-20 16:01 | 33.83365 | -118.07887 | 6678 ft | 236 kts | 337° |
| 2026-04-20 16:01 | 33.84896 | -118.08623 | 6332 ft | 234 kts | 337° |
| 2026-04-20 16:02 | 33.86392 | -118.09342 | 5960 ft | 233 kts | 338° |
| 2026-04-20 16:02 | 33.87900 | -118.10066 | 5611 ft | 230 kts | 338° |
| 2026-04-20 16:02 | 33.89347 | -118.10847 | 5232 ft | 229 kts | 329° |
| 2026-04-20 16:02 | 33.90688 | -118.11884 | 4816 ft | 229 kts | 325° |
| 2026-04-20 16:03 | 33.91982 | -118.12950 | 4477 ft | 218 kts | 326° |
| 2026-04-20 16:03 | 33.93203 | -118.13952 | 4231 ft | 206 kts | 326° |
| 2026-04-20 16:03 | 33.94377 | -118.14911 | 3968 ft | 199 kts | 326° |
| 2026-04-20 16:03 | 33.95379 | -118.15971 | 3719 ft | 192 kts | 307° |
| 2026-04-20 16:04 | 33.95825 | -118.17440 | 3461 ft | 187 kts | 270° |
| 2026-04-20 16:04 | 33.95702 | -118.18977 | 3231 ft | 183 kts | 262° |
| 2026-04-20 16:04 | 33.95530 | -118.20485 | 3000 ft | 181 kts | 262° |
| 2026-04-20 16:04 | 33.95377 | -118.21993 | 2768 ft | 180 kts | 263° |
| 2026-04-20 16:05 | 33.95229 | -118.23492 | 2532 ft | 179 kts | 263° |
| 2026-04-20 16:05 | 33.95081 | -118.24974 | 2297 ft | 177 kts | 263° |
| 2026-04-20 16:05 | 33.94936 | -118.26429 | 2068 ft | 177 kts | 263° |
| 2026-04-20 16:05 | 33.94789 | -118.27889 | 1832 ft | 173 kts | 263° |
| 2026-04-20 16:06 | 33.94649 | -118.29279 | 1607 ft | 163 kts | 263° |
| 2026-04-20 16:06 | 33.94517 | -118.30585 | 1398 ft | 151 kts | 264° |
| 2026-04-20 16:06 | 33.94389 | -118.31848 | 1199 ft | 150 kts | 263° |
| 2026-04-20 16:06 | 33.94264 | -118.33085 | 996 ft | 149 kts | 263° |
| 2026-04-20 16:07 | 33.94140 | -118.34320 | 770 ft | 148 kts | 263° |
| 2026-04-20 16:07 | 33.94017 | -118.35545 | 560 ft | 148 kts | 264° |
| 2026-04-20 16:07 | 33.93887 | -118.36774 | 384 ft | 146 kts | 263° |
| 2026-04-20 16:07 | 33.93767 | -118.37990 | 194 ft | 149 kts | 263° |
| 2026-04-20 16:08 | 33.93642 | -118.39208 | 114 ft | 131 kts | 263° |
| 2026-04-20 16:08 | 33.93550 | -118.40114 | 126 ft | 70 kts | 264° |
| 2026-04-20 16:08 | 33.93565 | -118.40548 | 131 ft | 27 kts | 294° |